Time;durP1;ratioP1;P1;durP2;ratioP2;P2;SDS_P1;SDS_P2;PMS_P1;PMS_P2;Temp;Humidity;BMP_temperature;BMP_pressure;BME280_temperature;BME280_humidity;BME280_pressure;Samples;Min_cycle;Max_cycle;Signal;HPM_P1;HPM_P2
2023/08/13 00:00:45;;;;;;;3.30;2.03;;;22.30;99.90;;;;;;6151140;23;20462;-64
2023/08/13 00:03:31;;;;;;;3.47;2.20;;;22.30;99.90;;;;;;6151016;23;20009;-64
2023/08/13 00:06:16;;;;;;;2.60;1.85;;;22.30;99.90;;;;;;6151647;23;20403;-64
2023/08/13 00:09:04;;;;;;;3.25;1.75;;;22.30;99.90;;;;;;6151782;23;20010;-64
2023/08/13 00:11:50;;;;;;;6.18;2.65;;;22.30;99.90;;;;;;6150987;23;20014;-64
2023/08/13 00:14:35;;;;;;;3.80;2.25;;;22.30;99.90;;;;;;6151832;23;20435;-64
2023/08/13 00:17:22;;;;;;;2.45;1.88;;;22.30;99.90;;;;;;6151200;23;20009;-64
2023/08/13 00:20:09;;;;;;;2.72;2.03;;;22.20;99.90;;;;;;6149649;23;20301;-65
2023/08/13 00:22:55;;;;;;;2.53;2.10;;;22.20;99.90;;;;;;6149496;23;20431;-64
2023/08/13 00:25:40;;;;;;;5.97;2.20;;;22.10;99.90;;;;;;6151834;23;20016;-64
2023/08/13 00:28:26;;;;;;;6.75;2.17;;;22.10;99.90;;;;;;6151319;23;20010;-64
2023/08/13 00:31:12;;;;;;;4.22;1.92;;;22.10;99.90;;;;;;6152578;23;20335;-65
2023/08/13 00:33:58;;;;;;;3.60;1.95;;;22.00;99.90;;;;;;6150732;23;20088;-64
2023/08/13 00:36:44;;;;;;;3.75;2.55;;;22.00;99.90;;;;;;6152096;23;20019;-64
2023/08/13 00:39:30;;;;;;;3.45;2.20;;;22.00;99.90;;;;;;6150782;23;20036;-64
2023/08/13 00:42:16;;;;;;;3.10;1.95;;;22.00;99.90;;;;;;6150934;23;20048;-64
2023/08/13 00:45:03;;;;;;;3.42;2.60;;;21.90;99.90;;;;;;6150411;23;20032;-64
2023/08/13 00:47:49;;;;;;;3.72;1.90;;;21.90;99.90;;;;;;6149654;23;20362;-64
2023/08/13 00:50:35;;;;;;;3.40;2.60;;;21.90;99.90;;;;;;6151282;23;20005;-64
2023/08/13 00:53:22;;;;;;;3.38;2.25;;;21.80;99.90;;;;;;6148121;23;20037;-66
2023/08/13 00:56:08;;;;;;;3.03;2.05;;;21.80;99.90;;;;;;6150111;23;20009;-66
2023/08/13 00:58:54;;;;;;;3.15;2.72;;;21.80;99.90;;;;;;6150426;23;20101;-66
2023/08/13 01:01:39;;;;;;;3.05;2.20;;;21.80;99.90;;;;;;6151428;23;20017;-66
2023/08/13 01:04:25;;;;;;;3.97;2.20;;;21.80;99.90;;;;;;6149921;23;20008;-66
2023/08/13 01:07:40;;;;;;;2.92;2.17;;;21.80;99.90;;;;;;6150976;23;20435;-66
2023/08/13 01:10:33;;;;;;;3.58;2.50;;;21.70;99.90;;;;;;6151758;23;20121;-65
2023/08/13 01:13:28;;;;;;;3.65;2.30;;;21.70;99.90;;;;;;6147269;23;20005;-66
2023/08/13 01:16:15;;;;;;;;;;;21.70;99.90;;;;;;6149875;23;20032;-65
2023/08/13 01:19:02;;;;;;;3.00;2.17;;;21.70;99.90;;;;;;6131111;23;19979;-65
2023/08/13 01:21:48;;;;;;;3.33;2.40;;;21.70;99.90;;;;;;6149480;23;20013;-66
2023/08/13 06:03:48;;;;;;;4.63;1.88;;;21.90;99.90;;;;;;6212120;23;20020;-65
2023/08/13 06:06:34;;;;;;;4.57;1.92;;;22.00;99.90;;;;;;6237993;23;20039;-70
2023/08/13 06:09:20;;;;;;;4.45;2.45;;;22.00;99.90;;;;;;6239356;23;20074;-74
2023/08/13 06:12:07;;;;;;;4.07;2.20;;;22.00;99.90;;;;;;6237549;23;20012;-75
2023/08/13 06:14:53;;;;;;;4.78;2.00;;;22.10;99.90;;;;;;6238677;23;20405;-72
2023/08/13 06:17:42;;;;;;;3.83;2.22;;;22.10;99.90;;;;;;6238783;23;20241;-71
2023/08/13 06:20:28;;;;;;;7.00;2.65;;;22.10;99.90;;;;;;6237543;23;20453;-72
2023/08/13 06:23:14;;;;;;;3.72;2.20;;;22.10;99.90;;;;;;6237860;23;20013;-72
2023/08/13 06:26:00;;;;;;;4.57;2.45;;;22.00;99.90;;;;;;6240320;23;20012;-72
2023/08/13 06:28:46;;;;;;;5.43;3.58;;;21.90;99.90;;;;;;6239781;23;20516;-70
2023/08/13 06:31:31;;;;;;;10.95;5.97;;;21.90;99.90;;;;;;6240447;23;20022;-70
2023/08/13 06:34:17;;;;;;;9.95;5.80;;;21.90;99.90;;;;;;6239742;23;20015;-71
2023/08/13 06:37:03;;;;;;;8.70;4.13;;;21.90;99.90;;;;;;6219377;23;20023;-71
2023/08/13 06:39:49;;;;;;;5.88;3.60;;;21.90;99.90;;;;;;6239123;23;20027;-71
2023/08/13 06:42:35;;;;;;;4.30;2.85;;;22.00;99.90;;;;;;6237422;23;20501;-72
2023/08/13 06:45:26;;;;;;;4.13;2.13;;;22.00;99.90;;;;;;6238736;23;20008;-71
2023/08/13 06:48:12;;;;;;;7.82;2.70;;;22.10;99.90;;;;;;6239315;23;20008;-72
2023/08/13 06:50:58;;;;;;;8.63;4.18;;;22.20;99.90;;;;;;6218383;23;20035;-72
2023/08/13 06:53:44;;;;;;;7.93;3.90;;;22.30;99.90;;;;;;6239653;23;20009;-70
2023/08/13 06:56:30;;;;;;;6.43;3.10;;;22.40;99.90;;;;;;6240638;23;20123;-70
2023/08/13 06:59:16;;;;;;;4.55;2.47;;;22.50;99.90;;;;;;6217438;23;20043;-70
2023/08/13 07:02:04;;;;;;;5.88;2.40;;;22.60;99.90;;;;;;6239760;23;20016;-70
2023/08/13 07:04:50;;;;;;;7.00;3.92;;;22.80;99.90;;;;;;6219399;23;20028;-70
2023/08/13 07:07:36;;;;;;;3.67;2.45;;;22.80;99.90;;;;;;6240903;23;20017;-70
2023/08/13 07:10:22;;;;;;;5.15;1.88;;;22.90;99.90;;;;;;6241937;23;20012;-70
2023/08/13 07:13:08;;;;;;;5.88;2.03;;;22.90;99.90;;;;;;6242473;23;20008;-70
2023/08/13 07:15:54;;;;;;;3.58;2.13;;;23.00;99.90;;;;;;6242817;23;20070;-70
2023/08/13 07:18:42;;;;;;;5.03;2.58;;;23.00;99.90;;;;;;6242695;23;20062;-71
2023/08/13 07:21:28;;;;;;;4.32;2.00;;;23.00;99.80;;;;;;6240853;23;20099;-70
2023/08/13 07:24:14;;;;;;;4.07;1.77;;;23.00;99.50;;;;;;6238455;23;20103;-70
2023/08/13 07:27:00;;;;;;;3.83;2.17;;;23.00;99.50;;;;;;6242326;23;20034;-70
2023/08/13 07:29:46;;;;;;;4.78;1.67;;;23.00;99.40;;;;;;6241102;23;20008;-70
2023/08/13 07:32:32;;;;;;;3.58;1.70;;;23.00;99.10;;;;;;6235716;23;20340;-70
2023/08/13 07:35:18;;;;;;;4.35;2.15;;;23.00;99.10;;;;;;6241779;23;20016;-73
2023/08/13 07:38:04;;;;;;;6.32;2.88;;;23.10;99.10;;;;;;6241590;23;20008;-72
2023/08/13 07:40:50;;;;;;;11.15;2.63;;;23.10;99.00;;;;;;6242169;23;20027;-72
2023/08/13 07:43:36;;;;;;;5.28;2.97;;;23.10;98.60;;;;;;6244857;23;20074;-73
2023/08/13 07:46:22;;;;;;;4.78;2.25;;;23.10;98.80;;;;;;6251225;23;20105;-72
2023/08/13 07:49:08;;;;;;;4.30;2.35;;;23.20;98.30;;;;;;6243807;23;20439;-75
2023/08/13 07:51:54;;;;;;;3.22;2.10;;;23.20;98.30;;;;;;6241985;23;20048;-74
2023/08/13 07:54:40;;;;;;;3.65;1.95;;;23.20;98.20;;;;;;6242423;23;20007;-74
2023/08/13 07:57:26;;;;;;;3.70;1.80;;;23.30;98.00;;;;;;6241497;23;20087;-74
2023/08/13 08:00:12;;;;;;;5.80;1.83;;;23.30;97.90;;;;;;6241106;23;20016;-74
2023/08/13 08:02:58;;;;;;;3.45;1.90;;;23.40;97.80;;;;;;6240595;23;20008;-74
2023/08/13 08:05:47;;;;;;;3.60;1.70;;;23.40;97.70;;;;;;6241645;23;20363;-74
2023/08/13 08:08:33;;;;;;;5.05;2.58;;;23.40;97.70;;;;;;6241073;23;20074;-74
2023/08/13 08:11:19;;;;;;;6.05;2.03;;;23.50;97.50;;;;;;6241736;23;20078;-74
2023/08/13 08:14:05;;;;;;;5.85;2.03;;;23.50;97.00;;;;;;6240892;23;20012;-74
2023/08/13 08:16:57;;;;;;;3.80;2.00;;;23.50;96.70;;;;;;6242160;23;20012;-74
2023/08/13 08:19:42;;;;;;;5.95;2.13;;;23.60;96.50;;;;;;6239561;23;20464;-73
2023/08/13 08:22:28;;;;;;;5.63;2.70;;;23.60;96.50;;;;;;6240115;23;20342;-74
2023/08/13 08:25:14;;;;;;;5.18;2.40;;;23.70;96.40;;;;;;6241736;23;20452;-73
2023/08/13 08:28:00;;;;;;;2.60;1.73;;;23.70;96.40;;;;;;6240362;23;20087;-74
2023/08/13 08:30:46;;;;;;;5.60;1.90;;;23.80;95.90;;;;;;6241339;23;20015;-74
2023/08/13 08:33:32;;;;;;;2.85;1.95;;;23.80;95.90;;;;;;6240590;23;20413;-74
2023/08/13 08:36:18;;;;;;;3.90;1.98;;;23.80;95.70;;;;;;6241416;23;20012;-72
2023/08/13 08:39:04;;;;;;;3.08;1.65;;;23.90;95.60;;;;;;6240022;23;20004;-73
2023/08/13 08:41:55;;;;;;;4.88;2.15;;;24.00;95.80;;;;;;6241491;23;20393;-71
2023/08/13 08:44:45;;;;;;;4.25;2.20;;;24.00;95.70;;;;;;6240070;23;20008;-72
2023/08/13 08:47:33;;;;;;;3.03;1.60;;;24.00;95.30;;;;;;6239776;23;20015;-72
2023/08/13 08:50:19;;;;;;;5.45;2.13;;;24.10;95.20;;;;;;6240979;23;20023;-70
2023/08/13 08:53:05;;;;;;;4.32;1.65;;;24.10;94.70;;;;;;6217520;23;20011;-67
2023/08/13 08:55:52;;;;;;;4.95;1.77;;;24.20;94.50;;;;;;6240414;23;20047;-73
2023/08/13 08:58:38;;;;;;;11.77;2.05;;;24.20;94.20;;;;;;6239228;23;20008;-65
2023/08/13 09:01:24;;;;;;;7.63;2.20;;;24.20;93.90;;;;;;6241105;23;20023;-66
2023/08/13 09:04:10;;;;;;;2.60;1.30;;;24.30;93.60;;;;;;6240022;23;20019;-67
2023/08/13 09:07:04;;;;;;;5.55;1.83;;;24.30;93.70;;;;;;6240371;23;20008;-66
2023/08/13 09:09:50;;;;;;;3.65;1.63;;;24.40;93.20;;;;;;6241931;23;20022;-64
2023/08/13 09:12:38;;;;;;;2.97;1.80;;;24.40;93.40;;;;;;6240840;23;20308;-64
2023/08/13 09:15:24;;;;;;;3.88;2.13;;;24.50;93.10;;;;;;6239073;23;20019;-62
2023/08/13 09:18:10;;;;;;;3.58;2.10;;;24.50;93.00;;;;;;6240181;23;20004;-64
2023/08/13 09:20:56;;;;;;;4.05;2.30;;;24.60;93.00;;;;;;6240941;23;20449;-67
2023/08/13 09:23:42;;;;;;;5.72;2.00;;;24.70;92.60;;;;;;6238893;23;20012;-66
2023/08/13 09:26:28;;;;;;;5.35;2.47;;;24.70;92.30;;;;;;6240337;23;20070;-63
2023/08/13 09:29:14;;;;;;;4.70;1.90;;;24.70;92.30;;;;;;6241213;23;20020;-65
2023/08/13 09:32:01;;;;;;;4.15;2.10;;;24.80;91.90;;;;;;6241193;23;20016;-65
2023/08/13 09:34:51;;;;;;;3.85;2.00;;;24.90;91.70;;;;;;6239295;23;20040;-67
2023/08/13 09:37:38;;;;;;;3.55;1.70;;;24.90;91.50;;;;;;6238238;23;20504;-68
2023/08/13 09:40:25;;;;;;;6.30;2.38;;;25.00;92.00;;;;;;6238154;23;20031;-68
2023/08/13 09:43:12;;;;;;;4.90;2.67;;;25.00;91.70;;;;;;6239233;23;20350;-67
2023/08/13 09:46:00;;;;;;;5.18;2.20;;;25.00;91.60;;;;;;6237450;23;20023;-68
2023/08/13 09:48:49;;;;;;;4.70;2.13;;;25.00;91.30;;;;;;6237855;23;20047;-67
2023/08/13 09:51:38;;;;;;;3.65;1.80;;;25.10;91.20;;;;;;6239253;23;20012;-67
2023/08/13 09:54:43;;;;;;;4.60;1.63;;;25.20;90.90;;;;;;6239372;23;20437;-67
2023/08/13 09:57:32;;;;;;;6.15;2.00;;;25.30;90.80;;;;;;6238982;23;20059;-68
2023/08/13 10:00:18;;;;;;;5.85;1.85;;;25.30;90.50;;;;;;6238494;23;20416;-67
2023/08/13 10:03:04;;;;;;;5.13;2.00;;;25.40;90.80;;;;;;6238558;23;20016;-68
2023/08/13 10:05:51;;;;;;;7.43;2.13;;;25.40;90.30;;;;;;6237970;23;20028;-67
2023/08/13 10:08:38;;;;;;;5.28;1.70;;;25.50;90.10;;;;;;6217398;23;20087;-70
2023/08/13 10:11:23;;;;;;;3.97;1.70;;;25.60;89.90;;;;;;6236786;23;20075;-70
2023/08/13 10:14:10;;;;;;;5.15;2.00;;;25.60;90.00;;;;;;6237454;23;20015;-70
2023/08/13 10:17:00;;;;;;;2.42;1.52;;;25.70;89.20;;;;;;6217747;23;20066;-70
2023/08/13 10:19:49;;;;;;;3.28;1.80;;;25.70;89.80;;;;;;6214119;23;20346;-70
2023/08/13 10:22:37;;;;;;;4.95;2.03;;;25.80;89.50;;;;;;6228982;23;20027;-70
2023/08/13 10:25:32;;;;;;;5.18;1.90;;;25.80;88.10;;;;;;6236767;23;20073;-70
2023/08/13 10:28:23;;;;;;;3.63;1.60;;;25.90;89.00;;;;;;6235275;23;20024;-70
2023/08/13 10:31:29;;;;;;;5.78;1.98;;;26.00;88.50;;;;;;6230126;23;20027;-70
2023/08/13 10:34:17;;;;;;;5.75;2.03;;;26.10;88.50;;;;;;6232618;23;20022;-70
2023/08/13 10:37:13;;;;;;;2.60;1.60;;;26.10;86.80;;;;;;6230074;23;20015;-70
2023/08/13 10:40:08;;;;;;;3.83;1.83;;;26.20;87.70;;;;;;6230422;23;20020;-71
2023/08/13 10:43:02;;;;;;;4.68;2.17;;;26.30;87.60;;;;;;6231245;23;20022;-71
2023/08/13 10:45:48;;;;;;;6.95;2.05;;;26.40;86.90;;;;;;6233049;23;20012;-71
2023/08/13 10:48:34;;;;;;;7.47;2.10;;;26.40;86.50;;;;;;6212809;23;20070;-70
2023/08/13 10:51:23;;;;;;;2.53;1.50;;;26.50;85.70;;;;;;6236279;23;20062;-71
2023/08/13 10:54:10;;;;;;;3.95;1.77;;;26.60;85.10;;;;;;6233661;23;20077;-70
2023/08/13 10:57:00;;;;;;;6.40;1.50;;;26.50;84.60;;;;;;6232647;23;20358;-70
2023/08/13 10:59:46;;;;;;;3.67;1.85;;;26.60;85.00;;;;;;6232916;23;20012;-70
2023/08/13 11:02:32;;;;;;;2.42;1.83;;;26.70;85.80;;;;;;6233966;23;20054;-70
2023/08/13 11:05:19;;;;;;;3.63;1.70;;;26.80;85.20;;;;;;6234574;23;20397;-70
2023/08/13 11:08:07;;;;;;;3.90;1.80;;;26.90;86.50;;;;;;6233733;23;20150;-70
2023/08/13 11:10:53;;;;;;;3.13;1.60;;;27.00;84.60;;;;;;6234590;23;20013;-71
2023/08/13 11:13:39;;;;;;;2.78;1.80;;;27.10;83.80;;;;;;6212553;23;20117;-71
2023/08/13 11:16:28;;;;;;;3.42;2.10;;;27.20;83.60;;;;;;6234387;23;20108;-70
2023/08/13 11:19:14;;;;;;;3.25;1.77;;;27.20;82.80;;;;;;6235142;23;20015;-71
2023/08/13 11:22:02;;;;;;;3.55;1.42;;;27.20;82.60;;;;;;6233131;23;20020;-70
2023/08/13 11:24:48;;;;;;;3.72;1.70;;;27.30;82.30;;;;;;6212571;23;20403;-73
2023/08/13 11:27:34;;;;;;;7.68;1.90;;;27.30;82.70;;;;;;6234587;23;20019;-73
2023/08/13 11:30:21;;;;;;;4.20;2.25;;;27.40;81.80;;;;;;6212166;23;20091;-72
2023/08/13 11:33:07;;;;;;;4.82;1.70;;;27.50;81.60;;;;;;6232694;23;20198;-73
2023/08/13 11:35:54;;;;;;;2.75;1.65;;;27.50;80.70;;;;;;6234654;23;20327;-73
2023/08/13 11:38:40;;;;;;;6.97;2.00;;;27.40;81.00;;;;;;6235856;23;20051;-72
2023/08/13 11:41:26;;;;;;;3.85;1.70;;;27.50;79.90;;;;;;6234003;23;20025;-73
2023/08/13 11:44:12;;;;;;;7.15;1.90;;;27.50;79.80;;;;;;6233372;23;20015;-73
2023/08/13 11:47:04;;;;;;;4.53;1.85;;;27.60;79.70;;;;;;6233867;23;20050;-73
2023/08/13 11:49:51;;;;;;;4.47;1.70;;;27.60;80.20;;;;;;6233923;23;20042;-72
2023/08/13 11:52:37;;;;;;;5.38;1.90;;;27.60;78.90;;;;;;6232397;23;20972;-73
2023/08/13 11:55:24;;;;;;;3.45;1.85;;;27.60;78.40;;;;;;6233849;23;20515;-74
2023/08/13 11:58:10;;;;;;;4.30;2.13;;;27.70;78.70;;;;;;6232560;23;20412;-72
2023/08/13 12:00:56;;;;;;;3.28;1.80;;;27.70;78.70;;;;;;6232372;23;20020;-72
2023/08/13 12:03:44;;;;;;;3.20;1.90;;;27.70;77.90;;;;;;6234127;23;20032;-73
2023/08/13 12:06:33;;;;;;;6.57;2.30;;;27.80;78.70;;;;;;6233539;23;20177;-73
2023/08/13 12:09:19;;;;;;;3.25;1.60;;;27.80;78.20;;;;;;6233681;23;20405;-72
2023/08/13 12:12:05;;;;;;;5.30;1.48;;;27.80;78.40;;;;;;6233409;23;20015;-73
2023/08/13 12:14:51;;;;;;;4.75;1.80;;;27.80;79.30;;;;;;6234134;23;20439;-74
2023/08/13 12:17:37;;;;;;;5.50;2.55;;;27.90;78.20;;;;;;6233419;23;20412;-72
2023/08/13 12:20:24;;;;;;;5.28;2.00;;;28.00;75.90;;;;;;6233171;23;20024;-73
2023/08/13 12:23:10;;;;;;;3.38;1.50;;;28.00;76.00;;;;;;6212365;23;20087;-72
2023/08/13 12:25:56;;;;;;;2.05;1.48;;;28.10;75.70;;;;;;6233452;23;20016;-73
2023/08/13 12:28:47;;;;;;;5.85;2.05;;;28.10;76.10;;;;;;6212992;23;20434;-71
2023/08/13 12:31:34;;;;;;;5.07;1.80;;;28.20;76.50;;;;;;6231285;23;20050;-72
2023/08/13 12:34:20;;;;;;;3.55;1.60;;;28.30;77.30;;;;;;6232124;23;20008;-71
2023/08/13 12:37:06;;;;;;;1.98;1.40;;;28.40;76.70;;;;;;6233855;23;20469;-73
2023/08/13 12:39:52;;;;;;;5.05;2.15;;;28.40;75.90;;;;;;6234437;23;20113;-72
2023/08/13 12:42:39;;;;;;;3.30;1.75;;;28.50;76.40;;;;;;6231490;23;20008;-71
2023/08/13 12:45:25;;;;;;;3.30;1.52;;;28.60;75.20;;;;;;6238745;23;20048;-72
2023/08/13 12:48:11;;;;;;;2.58;1.83;;;28.70;75.10;;;;;;6238402;23;20018;-72
2023/08/13 12:50:57;;;;;;;2.85;2.00;;;28.70;74.60;;;;;;6241546;23;20016;-72
2023/08/13 12:53:42;;;;;;;3.20;1.90;;;28.70;74.10;;;;;;6240776;23;20007;-72
2023/08/13 12:56:28;;;;;;;3.63;2.00;;;28.70;74.30;;;;;;6238267;23;20484;-72
2023/08/13 12:59:17;;;;;;;2.95;1.67;;;28.70;74.10;;;;;;6237970;23;20012;-72
2023/08/13 13:02:03;;;;;;;4.13;1.90;;;28.80;73.20;;;;;;6223460;23;20088;-72
2023/08/13 13:04:50;;;;;;;2.30;1.60;;;28.90;73.50;;;;;;6247239;23;20324;-72
2023/08/13 13:07:36;;;;;;;4.68;2.20;;;29.00;73.40;;;;;;6238524;23;20042;-71
2023/08/13 13:10:22;;;;;;;4.10;2.03;;;29.10;72.60;;;;;;6240127;23;20008;-71
2023/08/13 13:13:08;;;;;;;2.97;1.90;;;29.10;72.20;;;;;;6240488;23;20040;-71
2023/08/13 13:15:54;;;;;;;2.95;1.90;;;29.20;72.30;;;;;;6196086;23;20051;-73
2023/08/13 13:18:40;;;;;;;2.95;1.70;;;29.20;71.00;;;;;;6237438;23;20008;-70
2023/08/13 13:21:26;;;;;;;4.10;2.20;;;29.20;70.50;;;;;;6240020;23;20020;-71
2023/08/13 13:24:12;;;;;;;3.35;1.70;;;29.20;70.40;;;;;;6239848;23;20027;-71
2023/08/13 13:26:58;;;;;;;2.38;1.35;;;29.20;69.90;;;;;;6241527;23;20379;-71
2023/08/13 13:29:45;;;;;;;4.60;1.88;;;29.10;70.40;;;;;;6218653;23;20474;-72
2023/08/13 13:32:31;;;;;;;2.92;1.92;;;29.00;70.10;;;;;;6219288;23;20095;-72
2023/08/13 13:35:17;;;;;;;3.92;1.98;;;29.00;69.90;;;;;;6218141;23;20004;-72
2023/08/13 13:38:03;;;;;;;3.80;2.00;;;29.00;70.50;;;;;;6240046;23;20070;-72
2023/08/13 13:40:49;;;;;;;3.58;2.00;;;29.10;70.80;;;;;;6241796;23;20022;-72
2023/08/13 13:43:35;;;;;;;4.68;1.75;;;29.00;71.10;;;;;;6240245;23;20018;-71
2023/08/13 13:46:21;;;;;;;2.92;2.00;;;29.00;72.30;;;;;;6216755;23;20016;-71
2023/08/13 13:49:07;;;;;;;3.20;2.00;;;28.90;71.40;;;;;;6218212;23;20004;-70
2023/08/13 13:51:53;;;;;;;5.15;1.77;;;28.80;72.00;;;;;;6237810;23;20012;-70
2023/08/13 13:54:39;;;;;;;3.30;1.92;;;28.70;70.80;;;;;;6238555;23;20011;-71
2023/08/13 13:57:26;;;;;;;2.55;1.67;;;28.70;71.30;;;;;;6240548;23;20016;-71
2023/08/13 14:00:13;;;;;;;3.20;1.60;;;28.70;71.60;;;;;;6238527;23;20023;-71
2023/08/13 14:02:59;;;;;;;3.03;1.85;;;28.80;71.00;;;;;;6239780;23;20035;-71
2023/08/13 14:05:51;;;;;;;5.50;1.80;;;28.80;71.30;;;;;;6238240;23;20028;-71
2023/08/13 14:08:37;;;;;;;5.22;2.08;;;28.90;72.70;;;;;;6240634;23;20004;-71
2023/08/13 14:11:23;;;;;;;4.47;2.20;;;28.90;71.70;;;;;;6240028;23;20012;-71
2023/08/13 14:14:09;;;;;;;6.50;2.38;;;28.90;71.60;;;;;;6240030;23;20024;-71
2023/08/13 14:16:55;;;;;;;4.57;2.15;;;28.90;72.10;;;;;;6240448;23;20438;-71
2023/08/13 14:19:42;;;;;;;3.60;1.90;;;28.90;72.10;;;;;;6240603;23;20015;-71
2023/08/13 14:22:30;;;;;;;4.15;2.35;;;28.90;71.20;;;;;;6240645;23;20013;-71
2023/08/13 14:25:16;;;;;;;5.20;2.33;;;28.90;71.90;;;;;;6241350;23;20423;-71
2023/08/13 14:28:03;;;;;;;3.75;1.88;;;29.00;71.40;;;;;;6239334;23;20062;-71
2023/08/13 14:30:49;;;;;;;4.18;1.83;;;28.90;69.90;;;;;;6241669;23;20062;-74
2023/08/13 14:33:35;;;;;;;3.70;1.90;;;28.90;71.60;;;;;;6221193;23;20015;-72
2023/08/13 14:36:21;;;;;;;4.80;2.05;;;28.90;70.70;;;;;;6221209;23;20070;-72
2023/08/13 14:39:07;;;;;;;5.65;2.17;;;28.90;70.80;;;;;;6240133;23;20090;-72
2023/08/13 14:41:53;;;;;;;4.53;1.88;;;28.90;71.20;;;;;;6239734;23;20081;-71
2023/08/13 14:44:39;;;;;;;4.85;2.10;;;29.00;70.40;;;;;;6240383;23;20008;-72
2023/08/13 14:47:25;;;;;;;10.38;2.50;;;29.00;71.10;;;;;;6240801;23;20043;-72
2023/08/13 14:50:11;;;;;;;3.63;1.67;;;29.00;70.70;;;;;;6242890;23;20011;-72
2023/08/13 14:52:57;;;;;;;4.72;2.17;;;29.00;70.70;;;;;;6219717;23;20350;-72
2023/08/13 14:55:43;;;;;;;3.60;1.65;;;28.90;71.40;;;;;;6242592;23;20330;-72
2023/08/13 14:58:29;;;;;;;4.07;2.10;;;29.00;70.50;;;;;;6238911;23;20008;-72
2023/08/13 15:01:15;;;;;;;2.35;1.58;;;29.00;70.70;;;;;;6240389;23;20019;-72
2023/08/13 15:04:00;;;;;;;8.35;2.33;;;29.00;69.90;;;;;;6241633;23;20354;-72
2023/08/13 15:06:46;;;;;;;7.03;2.25;;;29.00;70.70;;;;;;6241935;23;20322;-72
2023/08/13 15:09:32;;;;;;;2.30;1.60;;;29.00;70.50;;;;;;6239400;23;20008;-72
2023/08/13 15:12:19;;;;;;;3.17;1.75;;;29.10;70.60;;;;;;6237737;23;20016;-72
2023/08/13 15:15:05;;;;;;;3.15;2.20;;;29.10;70.00;;;;;;6219672;23;20008;-72
2023/08/13 15:17:51;;;;;;;3.75;1.88;;;29.10;70.10;;;;;;6219725;23;20034;-72
2023/08/13 15:20:37;;;;;;;6.32;2.25;;;29.10;70.00;;;;;;6240439;23;20357;-72
2023/08/13 15:23:23;;;;;;;3.35;1.85;;;29.00;70.20;;;;;;6219262;23;20042;-72
2023/08/13 15:26:09;;;;;;;5.00;2.38;;;29.00;70.60;;;;;;6240564;23;20361;-72
2023/08/13 15:28:55;;;;;;;2.75;1.50;;;29.00;69.90;;;;;;6238817;23;20000;-72
2023/08/13 15:31:41;;;;;;;3.35;1.83;;;29.00;70.00;;;;;;6241592;23;20450;-72
2023/08/13 15:34:27;;;;;;;3.90;2.10;;;29.00;70.40;;;;;;6240174;23;20012;-72
2023/08/13 15:37:14;;;;;;;3.63;1.85;;;28.90;70.00;;;;;;6219237;23;20020;-72
2023/08/13 15:40:00;;;;;;;2.97;1.67;;;28.90;70.70;;;;;;6241510;23;20516;-72
2023/08/13 15:42:45;;;;;;;2.03;1.52;;;28.90;70.80;;;;;;6219559;23;20008;-74
2023/08/13 15:45:31;;;;;;;2.13;1.42;;;28.80;69.90;;;;;;6220222;23;20128;-71
2023/08/13 15:48:17;;;;;;;4.90;1.55;;;28.80;70.20;;;;;;6222059;23;20011;-72
2023/08/13 15:51:03;;;;;;;3.10;1.70;;;28.80;69.70;;;;;;6219972;23;20020;-71
2023/08/13 15:53:50;;;;;;;3.25;1.70;;;28.70;69.50;;;;;;6240114;23;20012;-71
2023/08/13 15:56:36;;;;;;;3.00;1.90;;;28.60;69.50;;;;;;6238740;23;20113;-71
2023/08/13 15:59:22;;;;;;;3.28;1.77;;;28.60;69.10;;;;;;6240394;23;20019;-71
2023/08/13 16:02:08;;;;;;;3.28;1.80;;;28.60;69.10;;;;;;6220395;23;20027;-71
2023/08/13 16:04:54;;;;;;;2.90;1.63;;;28.50;69.00;;;;;;6240794;23;20099;-72
2023/08/13 16:07:40;;;;;;;3.17;1.67;;;28.50;69.20;;;;;;6241304;23;20015;-70
2023/08/13 16:10:28;;;;;;;5.22;2.13;;;28.50;69.40;;;;;;6240052;23;20074;-71
2023/08/13 16:13:14;;;;;;;3.25;2.15;;;28.40;69.10;;;;;;6217118;23;20012;-71
2023/08/13 16:16:00;;;;;;;4.82;1.85;;;28.40;69.80;;;;;;6239596;23;20012;-71
2023/08/13 16:18:47;;;;;;;3.00;1.67;;;28.30;69.60;;;;;;6218009;23;20016;-71
2023/08/13 16:21:32;;;;;;;3.55;1.98;;;28.30;68.50;;;;;;6238592;23;20016;-71
2023/08/13 16:24:18;;;;;;;2.40;1.50;;;28.20;68.50;;;;;;6239697;23;20323;-71
2023/08/13 16:27:04;;;;;;;3.22;1.58;;;28.20;68.60;;;;;;6242526;23;20087;-71
2023/08/13 16:29:50;;;;;;;2.92;1.98;;;28.10;68.90;;;;;;6241475;23;20012;-71
2023/08/13 16:32:36;;;;;;;4.40;2.28;;;28.20;69.00;;;;;;6218123;23;20016;-71
2023/08/13 16:35:22;;;;;;;3.67;2.08;;;28.10;69.20;;;;;;6240963;23;20013;-71
2023/08/13 16:38:08;;;;;;;4.10;1.80;;;28.10;69.20;;;;;;6218540;23;20464;-70
2023/08/13 16:40:55;;;;;;;3.85;1.77;;;28.10;69.90;;;;;;6240855;23;20016;-73
2023/08/13 16:43:41;;;;;;;3.80;1.92;;;28.10;68.90;;;;;;6217363;23;20004;-72
2023/08/13 16:46:27;;;;;;;8.35;2.20;;;28.10;69.40;;;;;;6240222;23;20019;-72
2023/08/13 16:49:13;;;;;;;2.28;1.52;;;28.00;69.30;;;;;;6239348;23;20462;-74
2023/08/13 16:51:59;;;;;;;4.53;2.50;;;28.00;69.50;;;;;;6242081;23;20012;-73
2023/08/13 16:54:45;;;;;;;4.57;1.98;;;27.90;69.80;;;;;;6240904;23;20030;-72
2023/08/13 16:57:31;;;;;;;4.40;2.20;;;27.90;70.00;;;;;;6239847;23;20008;-72
2023/08/13 17:00:18;;;;;;;7.35;2.63;;;27.90;70.50;;;;;;6220390;23;20382;-72
2023/08/13 17:03:04;;;;;;;5.57;2.00;;;27.90;70.30;;;;;;6239510;23;20012;-72
2023/08/13 17:05:52;;;;;;;3.35;1.90;;;27.80;70.20;;;;;;6209083;23;20612;-72
2023/08/13 17:08:38;;;;;;;2.53;1.95;;;27.70;70.40;;;;;;6209864;23;20007;-72
2023/08/13 17:11:24;;;;;;;5.45;2.00;;;27.70;70.80;;;;;;6211902;23;20012;-72
2023/08/13 17:14:10;;;;;;;2.60;1.75;;;27.60;71.00;;;;;;6209387;23;20063;-72
2023/08/13 17:16:56;;;;;;;6.22;2.42;;;27.50;71.20;;;;;;6212912;23;20404;-72
2023/08/13 17:19:42;;;;;;;6.72;2.08;;;27.40;71.00;;;;;;6211101;23;20009;-72
2023/08/13 17:22:28;;;;;;;4.38;2.22;;;27.40;71.00;;;;;;6209591;23;20017;-72
2023/08/13 17:25:14;;;;;;;3.50;1.77;;;27.30;71.30;;;;;;6211099;23;20083;-72
2023/08/13 17:28:00;;;;;;;4.55;2.45;;;27.20;71.30;;;;;;6210546;23;20012;-72
2023/08/13 17:30:46;;;;;;;4.85;2.75;;;27.20;71.60;;;;;;6211064;23;20008;-72
2023/08/13 17:33:32;;;;;;;6.22;2.90;;;27.10;71.90;;;;;;6210229;23;20017;-72
2023/08/13 17:36:18;;;;;;;4.32;2.30;;;27.00;71.90;;;;;;6211861;23;20016;-72
2023/08/13 17:39:04;;;;;;;5.75;2.10;;;27.00;72.10;;;;;;6210595;23;20377;-72
2023/08/13 17:41:50;;;;;;;4.53;1.80;;;26.90;72.30;;;;;;6209880;23;20020;-72
2023/08/13 17:44:36;;;;;;;3.53;2.17;;;26.90;72.50;;;;;;6210489;23;20071;-72
2023/08/13 17:47:22;;;;;;;3.88;2.20;;;26.80;72.80;;;;;;6210889;23;20066;-72
2023/08/13 17:50:09;;;;;;;5.25;2.15;;;26.80;72.80;;;;;;6211001;23;20091;-72
2023/08/13 17:52:54;;;;;;;2.88;1.80;;;26.70;73.00;;;;;;6210467;23;20393;-72
2023/08/13 17:55:40;;;;;;;3.55;2.00;;;26.60;73.10;;;;;;6212094;23;20028;-73
2023/08/13 17:58:27;;;;;;;4.65;2.92;;;26.60;73.40;;;;;;6210243;23;20084;-72
2023/08/13 18:01:13;;;;;;;4.50;2.30;;;26.50;73.40;;;;;;6211558;23;20048;-71
2023/08/13 18:04:00;;;;;;;5.03;1.83;;;26.50;73.60;;;;;;6221781;23;20016;-72
2023/08/13 18:06:45;;;;;;;3.70;2.30;;;26.40;73.80;;;;;;6238324;23;20008;-72
2023/08/13 18:09:31;;;;;;;5.07;3.17;;;26.40;74.10;;;;;;6240388;23;20040;-73
2023/08/13 18:12:17;;;;;;;3.53;2.10;;;26.40;74.40;;;;;;6240871;23;20302;-72
2023/08/13 18:15:05;;;;;;;7.55;2.08;;;26.30;74.60;;;;;;6219353;23;20012;-73
2023/08/13 18:17:51;;;;;;;5.28;2.75;;;26.20;74.90;;;;;;6240619;23;20460;-73
2023/08/13 18:20:37;;;;;;;4.35;2.33;;;26.10;75.20;;;;;;6240765;23;20357;-73
2023/08/13 18:23:22;;;;;;;3.67;2.35;;;26.10;75.40;;;;;;6241251;23;20004;-73
2023/08/13 18:26:08;;;;;;;5.47;2.47;;;26.00;75.60;;;;;;6243111;23;20059;-73
2023/08/13 18:28:54;;;;;;;5.28;2.85;;;26.00;76.00;;;;;;6244442;23;20012;-71
2023/08/13 18:31:40;;;;;;;2.65;1.70;;;25.90;76.10;;;;;;6246755;23;20464;-71
2023/08/13 18:34:26;;;;;;;4.80;2.58;;;25.80;76.20;;;;;;6242337;23;20488;-71
2023/08/13 18:37:12;;;;;;;5.05;2.53;;;25.80;76.50;;;;;;6244459;23;20389;-72
2023/08/13 18:39:58;;;;;;;6.80;3.10;;;25.80;76.80;;;;;;6237991;23;20082;-72
2023/08/13 18:42:44;;;;;;;4.93;2.22;;;25.70;76.90;;;;;;6240189;23;20056;-72
2023/08/13 18:45:30;;;;;;;6.50;3.28;;;25.60;77.10;;;;;;6240347;23;20012;-72
2023/08/13 18:48:18;;;;;;;6.95;2.60;;;25.60;77.40;;;;;;6239774;23;20012;-72
2023/08/13 18:51:04;;;;;;;3.63;2.13;;;25.50;77.60;;;;;;6238541;23;20397;-75
2023/08/13 18:53:51;;;;;;;5.78;2.08;;;25.50;77.80;;;;;;6217180;23;20012;-73
2023/08/13 18:56:37;;;;;;;2.97;2.03;;;25.40;77.90;;;;;;6238802;23;20004;-72
2023/08/13 18:59:23;;;;;;;5.32;2.65;;;25.40;78.10;;;;;;6239639;23;20020;-72
2023/08/13 19:02:09;;;;;;;6.20;2.78;;;25.30;78.30;;;;;;6238120;23;20021;-72
2023/08/13 19:04:55;;;;;;;3.80;2.22;;;25.30;78.50;;;;;;6236642;23;20024;-72
2023/08/13 19:07:41;;;;;;;4.00;2.60;;;25.30;78.90;;;;;;6240553;23;20011;-72